Medi Baltimore — ICLW — position and weather

sailwx.info

Track history (hours):
 
Tides and Currents Weather Stations Pressure Air Temp Water Temp Dewpoint Dewpoint Depression Visibility Wind Speed Wind Dir Waves Ship Positions

Medi Baltimore

Last reported at 2015-Jan-18 13:23 UTC. Time now 2015-Jan-25 16:24 UTC.
Position N 35°35' W 025°27'.

Length 225 m; draft 9.1 m.

Type: Cargo ship. MMSI: 247255300.

Date/timePositionNaut miles runAvg speedWind from/ knotsBaromVisibWave heightAir tempDewpointWater temp
2015-Jan-18 13:23N 35°35' W 025°27'1214.3
2015-Jan-18 12:33N 35°37' W 025°13'1414.2
2015-Jan-18 11:33N 35°41' W 024°56'1414.4
2015-Jan-18 10:33N 35°44' W 024°39'1414.1
2015-Jan-18 09:33N 35°47' W 024°22'1813.7
2015-Jan-18 08:16N 35°51' W 024°00'1113.5
2015-Jan-18 07:29N 35°53' W 023°48'1313.4
2015-Jan-18 06:33N 35°56' W 023°32'2613.2
2015-Jan-18 04:33N 36°02' W 023°01'1313.2
2015-Jan-18 03:33N 36°05' W 022°45'1313.0
2015-Jan-18 02:33N 36°07' W 022°29'2813.0
2015-Jan-18 00:26N 36°12' W 021°56'  
2015-Jan-13 06:32N 50°47' W 005°34'  
2015-Jan-10 14:28N 50°50' W 005°40'  
Track history (hours):
 
Tides and Currents Weather Stations Pressure Air Temp Water Temp Dewpoint Dewpoint Depression Visibility Wind Speed Wind Dir Waves Ship Positions

Medi Baltimore

Last reported at 2015-Jan-18 13:23 UTC. Time now 2015-Jan-25 16:24 UTC.
Position N 35°35' W 025°27'.

Length 225 m; draft 9.1 m.

Type: Cargo ship. MMSI: 247255300.

Date/timePositionNaut miles runAvg speedWind from/ knotsBaromVisibWave heightAir tempDewpointWater temp
2015-Jan-18 13:23N 35°35' W 025°27'1214.3
2015-Jan-18 12:33N 35°37' W 025°13'1414.2
2015-Jan-18 11:33N 35°41' W 024°56'1414.4
2015-Jan-18 10:33N 35°44' W 024°39'1414.1
2015-Jan-18 09:33N 35°47' W 024°22'1813.7
2015-Jan-18 08:16N 35°51' W 024°00'1113.5
2015-Jan-18 07:29N 35°53' W 023°48'1313.4
2015-Jan-18 06:33N 35°56' W 023°32'2613.2
2015-Jan-18 04:33N 36°02' W 023°01'1313.2
2015-Jan-18 03:33N 36°05' W 022°45'1313.0
2015-Jan-18 02:33N 36°07' W 022°29'2813.0
2015-Jan-18 00:26N 36°12' W 021°56'  
2015-Jan-13 06:32N 50°47' W 005°34'  
2015-Jan-10 14:28N 50°50' W 005°40'  

Dump ship's entire track history